createdAt,value
2023-02-21T00:00:23.634Z,6.80
2023-02-21T00:03:30.218Z,6.80
2023-02-21T00:06:35.236Z,6.90
2023-02-21T00:09:40.563Z,6.80
2023-02-21T00:12:46.241Z,6.80
2023-02-21T00:15:51.821Z,6.80
2023-02-21T00:18:59.060Z,6.80
2023-02-21T00:22:04.561Z,6.70
2023-02-21T00:25:09.516Z,6.80
2023-02-21T00:28:14.376Z,6.70
2023-02-21T00:31:19.515Z,6.70
2023-02-21T00:34:26.368Z,6.50
2023-02-21T00:37:31.152Z,7.80
2023-02-21T00:40:36.171Z,7.30
2023-02-21T00:43:46.366Z,6.60
2023-02-21T00:46:51.567Z,6.60
2023-02-21T00:49:58.940Z,6.60
2023-02-21T00:53:03.794Z,6.50
2023-02-21T00:56:08.911Z,6.50
2023-02-21T00:59:14.188Z,6.50
2023-02-21T01:02:19.202Z,6.50
2023-02-21T01:05:26.284Z,6.50
2023-02-21T01:08:31.115Z,6.50
2023-02-21T01:11:36.604Z,6.40
2023-02-21T01:14:42.049Z,6.30
2023-02-21T01:17:47.000Z,6.40
2023-02-21T01:20:53.658Z,4.30
2023-02-21T01:23:58.670Z,6.50
2023-02-21T01:27:03.454Z,6.60
2023-02-21T01:30:08.862Z,6.40
2023-02-21T01:33:13.923Z,6.40
2023-02-21T01:36:24.695Z,5.00
2023-02-21T01:39:30.240Z,6.40
2023-02-21T01:42:35.319Z,7.60
2023-02-21T01:45:59.831Z,6.30
2023-02-21T01:49:05.832Z,6.40
2023-02-21T01:52:13.112Z,6.30
2023-02-21T01:55:18.157Z,6.30
2023-02-21T01:58:23.058Z,6.30
2023-02-21T02:01:30.269Z,6.30
2023-02-21T02:04:35.670Z,6.30
2023-02-21T02:07:42.537Z,3.90
2023-02-21T02:10:48.810Z,6.30
2023-02-21T02:13:53.700Z,6.20
2023-02-21T02:16:43.217Z,6.20
2023-02-21T02:19:58.037Z,6.10
2023-02-21T02:23:06.404Z,6.20
2023-02-21T02:26:09.087Z,6.20
2023-02-21T02:29:06.094Z,6.10
2023-02-21T02:32:04.281Z,6.20
2023-02-21T02:34:56.012Z,6.20
2023-02-21T02:37:48.496Z,6.20
2023-02-21T02:40:41.806Z,6.10
2023-02-21T02:43:32.292Z,6.10
2023-02-21T02:46:21.983Z,6.10
2023-02-21T02:49:16.022Z,6.10
2023-02-21T02:52:06.737Z,6.10
2023-02-21T02:54:59.622Z,6.20
2023-02-21T02:57:48.933Z,6.10
2023-02-21T03:00:41.050Z,6.10
2023-02-21T03:03:33.125Z,6.10
2023-02-21T03:06:26.771Z,6.10
2023-02-21T03:09:19.305Z,6.10
2023-02-21T03:12:09.869Z,6.10
2023-02-21T03:15:03.376Z,6.10
2023-02-21T03:17:54.659Z,6.10
2023-02-21T03:20:43.237Z,6.10
2023-02-21T03:23:32.598Z,6.10
2023-02-21T03:26:24.519Z,6.10
2023-02-21T03:29:16.790Z,7.30
2023-02-21T03:32:13.674Z,6.10
2023-02-21T03:35:01.205Z,6.10
2023-02-21T03:37:49.802Z,6.10
2023-02-21T03:40:37.311Z,6.10
2023-02-21T03:43:26.281Z,6.20
2023-02-21T03:46:19.384Z,6.10
2023-02-21T03:49:07.320Z,6.10
2023-02-21T03:51:55.516Z,6.10
2023-02-21T03:54:43.819Z,6.10
2023-02-21T03:57:35.606Z,6.00
2023-02-21T04:00:28.673Z,6.00
2023-02-21T04:03:16.588Z,6.00
2023-02-21T04:06:10.914Z,6.00
2023-02-21T04:08:58.621Z,6.00
2023-02-21T04:11:47.771Z,6.00
2023-02-21T04:14:35.668Z,6.00
2023-02-21T04:17:24.952Z,5.90
2023-02-21T04:20:15.413Z,5.90
2023-02-21T04:23:08.666Z,5.90
2023-02-21T04:25:56.770Z,5.90
2023-02-21T04:28:54.345Z,5.90
2023-02-21T04:31:42.473Z,5.90
2023-02-21T04:34:36.116Z,5.80
2023-02-21T04:37:23.678Z,5.80
2023-02-21T04:40:11.293Z,5.80
2023-02-21T04:42:59.321Z,5.80
2023-02-21T04:45:46.765Z,5.80
2023-02-21T04:48:34.638Z,5.90
2023-02-21T04:51:26.768Z,5.80
2023-02-21T04:54:14.599Z,5.80
2023-02-21T04:57:02.585Z,5.80
2023-02-21T04:59:50.341Z,5.80
2023-02-21T05:02:38.035Z,5.80
2023-02-21T05:05:26.004Z,5.80
2023-02-21T05:08:15.413Z,5.70
2023-02-21T05:11:02.841Z,5.80
2023-02-21T05:13:50.769Z,5.70
2023-02-21T05:16:38.892Z,5.80
2023-02-21T05:19:28.521Z,5.80
2023-02-21T05:22:20.531Z,5.80
2023-02-21T05:25:15.478Z,5.80
2023-02-21T05:28:03.881Z,5.70
2023-02-21T05:30:51.652Z,5.70
2023-02-21T05:33:39.321Z,5.70
2023-02-21T05:36:27.463Z,5.80
2023-02-21T05:39:15.485Z,5.80
2023-02-21T05:42:04.676Z,5.70
2023-02-21T05:44:52.366Z,5.60
2023-02-21T05:47:40.097Z,5.70
2023-02-21T05:50:28.320Z,5.80
2023-02-21T05:53:15.924Z,5.70
2023-02-21T05:56:04.142Z,5.70
2023-02-21T05:58:53.300Z,5.70
2023-02-21T06:01:41.159Z,8.00
2023-02-21T06:04:28.662Z,5.70
2023-02-21T06:07:16.923Z,5.70
2023-02-21T06:10:05.797Z,5.70
2023-02-21T06:12:53.641Z,5.60
2023-02-21T06:15:42.940Z,5.70
2023-02-21T06:18:31.076Z,5.70
2023-02-21T06:21:19.588Z,5.70
2023-02-21T06:24:07.124Z,5.70
2023-02-21T06:26:54.808Z,5.70
2023-02-21T06:29:42.113Z,5.70
2023-02-21T06:32:31.081Z,5.70
2023-02-21T06:35:18.599Z,5.70
2023-02-21T06:38:09.285Z,5.70
2023-02-21T06:40:57.849Z,5.70
2023-02-21T06:43:45.154Z,5.80
2023-02-21T06:46:32.899Z,4.40
2023-02-21T06:49:25.092Z,5.80
2023-02-21T06:52:13.557Z,5.80
2023-02-21T06:55:01.487Z,5.70
2023-02-21T06:57:50.590Z,5.90
2023-02-21T07:00:38.692Z,5.90
2023-02-21T07:03:26.967Z,5.90
2023-02-21T07:06:16.220Z,5.80
2023-02-21T07:09:05.073Z,5.80
2023-02-21T07:11:53.321Z,5.90
2023-02-21T07:14:40.850Z,5.80
2023-02-21T07:17:28.167Z,5.90
2023-02-21T07:20:15.693Z,5.90
2023-02-21T07:23:04.564Z,5.90
2023-02-21T07:25:52.324Z,5.90
2023-02-21T07:28:40.524Z,5.90
2023-02-21T07:31:28.081Z,5.90
2023-02-21T07:34:16.037Z,5.90
2023-02-21T07:37:04.487Z,5.80
2023-02-21T07:39:53.593Z,5.80
2023-02-21T07:42:43.776Z,7.10
2023-02-21T07:45:35.042Z,5.80
2023-02-21T07:48:23.248Z,5.80
2023-02-21T07:51:11.706Z,5.90
2023-02-21T07:54:00.047Z,5.90
2023-02-21T07:56:50.633Z,5.90
2023-02-21T07:59:38.038Z,5.90
2023-02-21T08:02:26.251Z,8.50
2023-02-21T08:05:14.132Z,5.90
2023-02-21T08:08:02.573Z,5.90
2023-02-21T08:10:50.216Z,6.00
2023-02-21T08:13:39.033Z,6.00
2023-02-21T08:16:28.551Z,6.00
2023-02-21T08:19:16.639Z,6.80
2023-02-21T08:22:04.652Z,6.10
2023-02-21T08:24:52.993Z,6.10
2023-02-21T08:27:40.539Z,6.20
2023-02-21T08:30:29.786Z,6.20
2023-02-21T08:33:17.898Z,6.30
2023-02-21T08:36:05.324Z,6.30
2023-02-21T08:38:53.536Z,6.30
2023-02-21T08:41:43.626Z,6.30
2023-02-21T08:44:31.246Z,6.40
2023-02-21T08:47:21.693Z,6.30
2023-02-21T08:50:10.112Z,6.40
2023-02-21T08:52:58.665Z,6.40
2023-02-21T08:55:47.958Z,6.40
2023-02-21T08:58:38.099Z,6.40
2023-02-21T09:01:32.229Z,6.40
2023-02-21T09:04:24.654Z,6.40
2023-02-21T09:07:15.691Z,6.40
2023-02-21T09:10:03.129Z,6.40
2023-02-21T09:12:50.845Z,6.20
2023-02-21T09:15:41.785Z,6.90
2023-02-21T09:18:30.960Z,6.20
2023-02-21T09:21:19.941Z,6.30
2023-02-21T09:24:08.669Z,6.30
2023-02-21T09:26:59.131Z,7.90
2023-02-21T09:29:47.514Z,6.20
2023-02-21T09:32:35.367Z,6.30
2023-02-21T09:35:24.136Z,6.10
2023-02-21T09:38:13.482Z,6.20
2023-02-21T09:41:02.644Z,6.30
2023-02-21T09:43:50.985Z,6.10
2023-02-21T09:46:40.792Z,6.40
2023-02-21T09:49:31.506Z,6.40
2023-02-21T09:52:22.671Z,6.20
2023-02-21T09:55:16.377Z,6.50
2023-02-21T09:58:04.720Z,6.50
2023-02-21T10:00:52.795Z,6.70
2023-02-21T10:03:45.488Z,6.80
2023-02-21T10:06:37.437Z,6.70
2023-02-21T10:09:28.925Z,6.60
2023-02-21T10:12:24.759Z,6.50
2023-02-21T10:15:20.489Z,6.30
2023-02-21T10:18:11.651Z,6.10
2023-02-21T10:21:01.730Z,6.30
2023-02-21T10:23:57.988Z,6.20
2023-02-21T10:26:49.168Z,6.30
2023-02-21T10:29:40.684Z,6.30
2023-02-21T10:32:29.962Z,6.20
2023-02-21T10:35:19.367Z,6.50
2023-02-21T10:38:09.036Z,6.40
2023-02-21T10:40:58.779Z,7.90
2023-02-21T10:43:48.653Z,6.50
2023-02-21T10:46:41.459Z,6.50
2023-02-21T10:49:32.198Z,6.50
2023-02-21T10:52:21.379Z,6.50
2023-02-21T10:55:30.050Z,6.80
2023-02-21T10:58:23.165Z,6.70
2023-02-21T11:01:16.250Z,6.40
2023-02-21T11:04:06.938Z,6.30
2023-02-21T11:06:56.328Z,6.60
2023-02-21T11:09:45.071Z,6.40
2023-02-21T11:12:33.135Z,6.30
2023-02-21T11:15:21.749Z,6.20
2023-02-21T11:18:15.749Z,6.20
2023-02-21T11:21:12.580Z,6.40
2023-02-21T11:24:03.986Z,6.50
2023-02-21T11:26:53.375Z,5.40
2023-02-21T11:29:46.742Z,6.70
2023-02-21T11:32:36.113Z,6.70
2023-02-21T11:35:26.467Z,6.70
2023-02-21T11:38:28.933Z,6.80
2023-02-21T11:41:22.515Z,7.00
2023-02-21T11:44:27.537Z,7.10
2023-02-21T11:47:20.409Z,6.90
2023-02-21T11:50:10.140Z,7.10
2023-02-21T11:53:01.339Z,7.10
2023-02-21T11:55:54.819Z,7.40
2023-02-21T11:58:46.353Z,7.50
2023-02-21T12:01:37.857Z,7.30
2023-02-21T12:04:32.140Z,8.20
2023-02-21T12:07:23.140Z,7.30
2023-02-21T12:10:22.928Z,7.80
2023-02-21T12:13:17.988Z,7.50
2023-02-21T12:16:12.179Z,7.40
2023-02-21T12:19:07.051Z,7.50
2023-02-21T12:22:04.851Z,7.50
2023-02-21T12:24:57.451Z,7.40
2023-02-21T12:27:48.802Z,7.40
2023-02-21T12:30:50.092Z,7.40
2023-02-21T12:33:44.668Z,7.40
2023-02-21T12:36:44.205Z,7.40
2023-02-21T12:39:40.802Z,7.40
2023-02-21T12:42:40.241Z,7.80
2023-02-21T12:45:37.307Z,7.90
2023-02-21T12:48:28.878Z,8.10
2023-02-21T12:51:19.757Z,6.40
2023-02-21T12:54:11.128Z,8.30
2023-02-21T12:57:01.190Z,8.80
2023-02-21T12:59:57.112Z,8.50
2023-02-21T13:02:51.948Z,8.50
2023-02-21T13:05:41.404Z,8.50
2023-02-21T13:08:31.494Z,9.30
2023-02-21T13:11:26.227Z,8.60
2023-02-21T13:14:21.624Z,8.70
2023-02-21T13:17:11.620Z,8.70
2023-02-21T13:20:06.317Z,8.50
2023-02-21T13:22:54.287Z,8.20
2023-02-21T13:26:08.170Z,8.20
2023-02-21T13:28:56.315Z,8.20
2023-02-21T13:31:46.209Z,8.30
2023-02-21T13:34:37.753Z,8.30
2023-02-21T13:37:26.495Z,8.30
2023-02-21T13:40:23.129Z,8.20
2023-02-21T13:43:14.785Z,8.50
2023-02-21T13:46:17.170Z,8.60
2023-02-21T13:49:24.373Z,8.60
2023-02-21T13:52:27.426Z,8.40
2023-02-21T13:55:34.444Z,8.40
2023-02-21T13:58:36.504Z,8.70
2023-02-21T14:01:41.750Z,6.10
2023-02-21T14:04:50.814Z,8.70
2023-02-21T14:07:41.501Z,8.70
2023-02-21T14:10:38.604Z,8.50
2023-02-21T14:13:32.288Z,8.60
2023-02-21T14:16:24.593Z,8.60
2023-02-21T14:19:14.102Z,8.70
2023-02-21T14:22:04.100Z,8.80
2023-02-21T14:24:53.735Z,9.20
2023-02-21T14:27:41.343Z,9.00
2023-02-21T14:30:31.156Z,9.10
2023-02-21T14:33:26.360Z,8.90
2023-02-21T14:36:15.869Z,9.10
2023-02-21T14:39:04.277Z,9.10
2023-02-21T14:41:57.094Z,9.10
2023-02-21T14:44:52.039Z,9.10
2023-02-21T14:47:46.801Z,9.00
2023-02-21T14:50:40.360Z,8.90
2023-02-21T14:53:53.336Z,8.70
2023-02-21T14:57:00.214Z,9.80
2023-02-21T15:00:01.530Z,8.90
2023-02-21T15:02:51.719Z,8.90
2023-02-21T15:05:46.485Z,8.90
2023-02-21T15:08:41.397Z,8.70
2023-02-21T15:11:33.480Z,8.60
2023-02-21T15:14:25.035Z,8.60
2023-02-21T15:17:14.625Z,8.40
2023-02-21T15:20:07.034Z,8.40
2023-02-21T15:23:01.068Z,8.30
2023-02-21T15:25:54.692Z,8.30
2023-02-21T15:28:42.651Z,6.50
2023-02-21T15:31:33.450Z,8.70
2023-02-21T15:34:22.079Z,8.70
2023-02-21T15:37:16.396Z,8.60
2023-02-21T15:40:12.164Z,8.70
2023-02-21T15:42:59.531Z,8.70
2023-02-21T15:45:51.448Z,8.70
2023-02-21T15:48:39.401Z,8.70
2023-02-21T15:51:27.425Z,10.30
2023-02-21T15:54:26.195Z,8.50
2023-02-21T15:57:25.310Z,8.80
2023-02-21T16:00:21.207Z,8.60
2023-02-21T16:03:28.429Z,8.60
2023-02-21T16:06:18.739Z,8.40
2023-02-21T16:09:09.004Z,8.30
2023-02-21T16:11:58.215Z,8.20
2023-02-21T16:14:49.135Z,8.10
2023-02-21T16:17:37.598Z,8.00
2023-02-21T16:20:28.448Z,7.90
2023-02-21T16:23:26.133Z,6.90
2023-02-21T16:26:23.875Z,7.70
2023-02-21T16:29:11.709Z,7.60
2023-02-21T16:32:01.256Z,7.60
2023-02-21T16:34:54.833Z,7.40
2023-02-21T16:37:42.497Z,7.30
2023-02-21T16:40:31.408Z,6.60
2023-02-21T16:43:21.255Z,7.10
2023-02-21T16:46:09.041Z,7.00
2023-02-21T16:49:00.021Z,7.10
2023-02-21T16:51:48.458Z,6.90
2023-02-21T16:54:36.054Z,6.80
2023-02-21T16:57:24.210Z,6.70
2023-02-21T17:00:12.726Z,6.70
2023-02-21T17:03:00.393Z,6.70
2023-02-21T17:05:51.797Z,6.60
2023-02-21T17:08:39.268Z,6.40
2023-02-21T17:11:26.875Z,6.30
2023-02-21T17:14:14.294Z,6.20
2023-02-21T17:17:02.352Z,6.10
2023-02-21T17:19:50.099Z,6.00
2023-02-21T17:22:41.822Z,6.60
2023-02-21T17:25:29.096Z,5.70
2023-02-21T17:28:17.239Z,5.50
2023-02-21T17:31:05.027Z,5.40
2023-02-21T17:33:53.002Z,5.40
2023-02-21T17:36:40.547Z,5.20
2023-02-21T17:39:30.580Z,5.20
2023-02-21T17:42:18.802Z,5.20
2023-02-21T17:45:06.308Z,5.10
2023-02-21T17:47:55.528Z,5.00
2023-02-21T17:50:43.416Z,4.80
2023-02-21T17:53:31.035Z,5.00
2023-02-21T17:56:21.275Z,5.00
2023-02-21T17:59:08.852Z,4.90
2023-02-21T18:01:56.808Z,4.80
2023-02-21T18:04:45.889Z,4.80
2023-02-21T18:07:35.316Z,4.60
2023-02-21T18:10:24.119Z,4.70
2023-02-21T18:13:12.955Z,4.60
2023-02-21T18:16:01.569Z,4.60
2023-02-21T18:18:49.080Z,4.60
2023-02-21T18:21:41.079Z,4.50
2023-02-21T18:24:29.329Z,4.50
2023-02-21T18:27:17.304Z,4.50
2023-02-21T18:30:07.163Z,4.40
2023-02-21T18:32:55.306Z,4.30
2023-02-21T18:35:46.530Z,4.30
2023-02-21T18:38:33.898Z,4.30
2023-02-21T18:41:25.783Z,4.70
2023-02-21T18:44:14.046Z,4.10
2023-02-21T18:47:03.442Z,4.20
2023-02-21T18:49:53.396Z,4.20
2023-02-21T18:52:49.226Z,4.20
2023-02-21T18:55:45.240Z,3.90
2023-02-21T18:58:38.724Z,4.00
2023-02-21T19:01:33.527Z,4.10
2023-02-21T19:04:23.103Z,4.10
2023-02-21T19:07:13.485Z,4.50
2023-02-21T19:10:01.068Z,4.00
2023-02-21T19:12:48.741Z,3.90
2023-02-21T19:15:37.099Z,3.80
2023-02-21T19:18:24.688Z,1.90
2023-02-21T19:21:17.603Z,1.10
2023-02-21T19:24:06.382Z,3.40
2023-02-21T19:26:55.645Z,3.00
2023-02-21T19:29:43.838Z,3.30
2023-02-21T19:32:34.924Z,3.20
2023-02-21T19:35:27.432Z,3.10
2023-02-21T19:38:17.341Z,3.00
2023-02-21T19:41:06.521Z,3.00
2023-02-21T19:43:57.440Z,2.90
2023-02-21T19:46:45.144Z,2.90
2023-02-21T19:49:32.809Z,2.90
2023-02-21T19:52:23.058Z,3.40
2023-02-21T19:55:12.912Z,2.80
2023-02-21T19:58:03.428Z,2.70
2023-02-21T20:00:51.232Z,2.80
2023-02-21T20:03:38.646Z,2.80
2023-02-21T20:06:28.009Z,2.80
2023-02-21T20:09:16.129Z,2.80
2023-02-21T20:12:05.993Z,0.50
2023-02-21T20:14:56.309Z,2.80
2023-02-21T20:17:44.006Z,2.80
2023-02-21T20:20:31.191Z,2.80
2023-02-21T20:23:19.436Z,2.80
2023-02-21T20:26:11.491Z,2.70
2023-02-21T20:29:01.622Z,2.70
2023-02-21T20:31:50.361Z,0.10
2023-02-21T20:34:39.909Z,2.60
2023-02-21T20:37:31.414Z,2.60
2023-02-21T20:40:18.918Z,2.70
2023-02-21T20:43:06.679Z,2.60
2023-02-21T20:45:55.958Z,2.60
2023-02-21T20:48:43.778Z,2.50
2023-02-21T20:51:33.549Z,2.50
2023-02-21T20:54:22.245Z,2.50
2023-02-21T20:57:11.132Z,2.40
2023-02-21T20:59:59.604Z,2.40
2023-02-21T21:02:49.451Z,2.20
2023-02-21T21:05:38.422Z,2.30
2023-02-21T21:08:26.998Z,2.60
2023-02-21T21:11:14.883Z,2.80
2023-02-21T21:14:03.065Z,3.00
2023-02-21T21:16:52.572Z,3.20
2023-02-21T21:19:42.343Z,3.30
2023-02-21T21:22:30.296Z,3.50
2023-02-21T21:25:18.376Z,3.70
2023-02-21T21:28:06.531Z,4.20
2023-02-21T21:30:54.556Z,6.70
2023-02-21T21:33:45.474Z,4.40
2023-02-21T21:36:36.095Z,4.50
2023-02-21T21:39:24.663Z,4.50
2023-02-21T21:42:16.895Z,4.50
2023-02-21T21:45:08.223Z,4.50
2023-02-21T21:47:58.791Z,4.50
2023-02-21T21:50:49.187Z,4.50
2023-02-21T21:53:40.052Z,4.50
2023-02-21T21:56:28.182Z,4.60
2023-02-21T21:59:18.905Z,4.80
2023-02-21T22:02:06.412Z,4.60
2023-02-21T22:04:54.489Z,4.60
2023-02-21T22:07:42.617Z,4.60
2023-02-21T22:10:32.565Z,5.90
2023-02-21T22:13:20.897Z,4.60
2023-02-21T22:16:09.974Z,4.70
2023-02-21T22:18:57.379Z,4.50
2023-02-21T22:21:45.345Z,5.70
2023-02-21T22:24:33.789Z,4.50
2023-02-21T22:27:22.690Z,4.50
2023-02-21T22:30:11.265Z,4.50
2023-02-21T22:32:58.746Z,6.10
2023-02-21T22:35:47.640Z,4.50
2023-02-21T22:38:36.138Z,4.50
2023-02-21T22:41:25.357Z,4.50
2023-02-21T22:44:14.705Z,4.50
2023-02-21T22:47:02.564Z,4.50
2023-02-21T22:49:50.235Z,4.50
2023-02-21T22:52:38.220Z,4.50
2023-02-21T22:55:27.390Z,4.60
2023-02-21T22:58:15.337Z,4.50
2023-02-21T23:01:07.983Z,4.60
2023-02-21T23:04:06.150Z,4.60
2023-02-21T23:06:54.885Z,4.60
2023-02-21T23:09:42.208Z,4.60
2023-02-21T23:12:29.846Z,4.60
2023-02-21T23:15:18.523Z,4.60
2023-02-21T23:18:07.699Z,4.80
2023-02-21T23:20:56.575Z,4.70
2023-02-21T23:23:47.769Z,4.60
2023-02-21T23:26:35.610Z,4.60
2023-02-21T23:29:25.258Z,3.30
2023-02-21T23:32:12.926Z,4.80
2023-02-21T23:35:01.750Z,4.70
2023-02-21T23:37:53.395Z,4.70
2023-02-21T23:40:41.040Z,4.70
2023-02-21T23:43:30.145Z,4.60
2023-02-21T23:46:19.214Z,4.40
2023-02-21T23:49:07.332Z,4.60
2023-02-21T23:51:56.929Z,4.60
2023-02-21T23:54:44.289Z,4.50
2023-02-21T23:57:32.572Z,4.60
